sensor_id;sensor_type;location;lat;lon;timestamp;temperature;humidity
19813;DHT22;10066;48.108;11.448;2024-02-15T00:00:51;9.40;98.80
19813;DHT22;10066;48.108;11.448;2024-02-15T00:03:18;9.40;98.80
19813;DHT22;10066;48.108;11.448;2024-02-15T00:05:48;9.40;98.70
19813;DHT22;10066;48.108;11.448;2024-02-15T00:08:15;9.40;98.70
19813;DHT22;10066;48.108;11.448;2024-02-15T00:10:42;9.40;98.70
19813;DHT22;10066;48.108;11.448;2024-02-15T00:13:12;9.40;98.70
19813;DHT22;10066;48.108;11.448;2024-02-15T00:15:39;9.40;98.60
19813;DHT22;10066;48.108;11.448;2024-02-15T00:18:06;9.40;98.60
19813;DHT22;10066;48.108;11.448;2024-02-15T00:20:33;9.40;98.60
19813;DHT22;10066;48.108;11.448;2024-02-15T00:23:02;9.50;98.60
19813;DHT22;10066;48.108;11.448;2024-02-15T00:25:30;9.40;98.50
19813;DHT22;10066;48.108;11.448;2024-02-15T00:27:57;9.40;98.50
19813;DHT22;10066;48.108;11.448;2024-02-15T00:30:25;9.40;98.40
19813;DHT22;10066;48.108;11.448;2024-02-15T00:32:53;9.40;98.40
19813;DHT22;10066;48.108;11.448;2024-02-15T00:35:20;9.50;98.40
19813;DHT22;10066;48.108;11.448;2024-02-15T00:37:47;9.40;98.30
19813;DHT22;10066;48.108;11.448;2024-02-15T00:40:17;9.40;98.30
19813;DHT22;10066;48.108;11.448;2024-02-15T00:42:44;9.40;98.20
19813;DHT22;10066;48.108;11.448;2024-02-15T00:45:11;9.40;98.20
19813;DHT22;10066;48.108;11.448;2024-02-15T00:47:38;9.40;98.20
19813;DHT22;10066;48.108;11.448;2024-02-15T00:50:08;9.40;98.20
19813;DHT22;10066;48.108;11.448;2024-02-15T00:52:35;9.30;98.10
19813;DHT22;10066;48.108;11.448;2024-02-15T00:55:02;9.40;98.20
19813;DHT22;10066;48.108;11.448;2024-02-15T00:57:31;9.30;98.10
19813;DHT22;10066;48.108;11.448;2024-02-15T00:59:58;9.30;98.10
19813;DHT22;10066;48.108;11.448;2024-02-15T01:02:25;9.30;98.10
19813;DHT22;10066;48.108;11.448;2024-02-15T01:04:53;9.30;98.10
19813;DHT22;10066;48.108;11.448;2024-02-15T01:07:22;9.30;98.20
19813;DHT22;10066;48.108;11.448;2024-02-15T01:09:51;9.30;98.10
19813;DHT22;10066;48.108;11.448;2024-02-15T01:12:19;9.20;98.20
19813;DHT22;10066;48.108;11.448;2024-02-15T01:14:47;9.20;98.20
19813;DHT22;10066;48.108;11.448;2024-02-15T01:17:14;9.20;98.20
19813;DHT22;10066;48.108;11.448;2024-02-15T01:19:42;9.20;98.20
19813;DHT22;10066;48.108;11.448;2024-02-15T01:22:10;9.20;98.20
19813;DHT22;10066;48.108;11.448;2024-02-15T01:24:38;9.30;98.30
19813;DHT22;10066;48.108;11.448;2024-02-15T01:27:05;9.30;98.30
19813;DHT22;10066;48.108;11.448;2024-02-15T01:29:32;9.30;98.30
19813;DHT22;10066;48.108;11.448;2024-02-15T01:32:01;9.30;98.30
19813;DHT22;10066;48.108;11.448;2024-02-15T01:34:29;9.20;98.20
19813;DHT22;10066;48.108;11.448;2024-02-15T01:36:56;9.20;98.20
19813;DHT22;10066;48.108;11.448;2024-02-15T01:39:23;9.20;98.20
19813;DHT22;10066;48.108;11.448;2024-02-15T01:41:50;9.10;98.20
19813;DHT22;10066;48.108;11.448;2024-02-15T01:44:17;9.10;98.40
19813;DHT22;10066;48.108;11.448;2024-02-15T01:46:47;9.00;98.40
19813;DHT22;10066;48.108;11.448;2024-02-15T01:49:16;9.00;98.40
19813;DHT22;10066;48.108;11.448;2024-02-15T01:51:44;9.00;98.30
19813;DHT22;10066;48.108;11.448;2024-02-15T01:54:12;9.00;98.30
19813;DHT22;10066;48.108;11.448;2024-02-15T01:56:43;8.90;98.30
19813;DHT22;10066;48.108;11.448;2024-02-15T01:59:11;8.90;98.30
19813;DHT22;10066;48.108;11.448;2024-02-15T02:01:39;8.90;98.30
19813;DHT22;10066;48.108;11.448;2024-02-15T02:04:06;8.80;98.30
19813;DHT22;10066;48.108;11.448;2024-02-15T02:06:36;8.80;98.40
19813;DHT22;10066;48.108;11.448;2024-02-15T02:09:03;8.70;98.40
19813;DHT22;10066;48.108;11.448;2024-02-15T02:11:31;8.70;98.60
19813;DHT22;10066;48.108;11.448;2024-02-15T02:13:58;8.70;98.70
19813;DHT22;10066;48.108;11.448;2024-02-15T02:16:26;8.80;98.80
19813;DHT22;10066;48.108;11.448;2024-02-15T02:18:55;8.80;98.80
19813;DHT22;10066;48.108;11.448;2024-02-15T02:21:22;8.90;98.90
19813;DHT22;10066;48.108;11.448;2024-02-15T02:23:53;8.80;98.80
19813;DHT22;10066;48.108;11.448;2024-02-15T02:26:22;8.90;98.90
19813;DHT22;10066;48.108;11.448;2024-02-15T02:28:49;8.90;98.80
19813;DHT22;10066;48.108;11.448;2024-02-15T02:31:18;8.90;98.80
19813;DHT22;10066;48.108;11.448;2024-02-15T02:33:48;8.90;98.90
19813;DHT22;10066;48.108;11.448;2024-02-15T02:36:17;8.90;98.80
19813;DHT22;10066;48.108;11.448;2024-02-15T02:38:44;8.90;98.80
19813;DHT22;10066;48.108;11.448;2024-02-15T02:41:12;9.00;98.90
19813;DHT22;10066;48.108;11.448;2024-02-15T02:43:41;9.00;98.90
19813;DHT22;10066;48.108;11.448;2024-02-15T02:46:10;9.00;98.80
19813;DHT22;10066;48.108;11.448;2024-02-15T02:48:37;8.90;98.80
19813;DHT22;10066;48.108;11.448;2024-02-15T02:51:06;8.90;98.80
19813;DHT22;10066;48.108;11.448;2024-02-15T02:53:33;8.90;98.80
19813;DHT22;10066;48.108;11.448;2024-02-15T02:56:00;8.90;98.80
19813;DHT22;10066;48.108;11.448;2024-02-15T02:58:27;8.90;98.90
19813;DHT22;10066;48.108;11.448;2024-02-15T03:00:56;8.90;98.90
19813;DHT22;10066;48.108;11.448;2024-02-15T03:03:26;9.00;98.90
19813;DHT22;10066;48.108;11.448;2024-02-15T03:05:53;9.00;98.90
19813;DHT22;10066;48.108;11.448;2024-02-15T03:08:20;9.00;98.90
19813;DHT22;10066;48.108;11.448;2024-02-15T03:10:48;9.00;98.90
19813;DHT22;10066;48.108;11.448;2024-02-15T03:13:15;9.00;98.80
19813;DHT22;10066;48.108;11.448;2024-02-15T03:15:44;9.00;98.80
19813;DHT22;10066;48.108;11.448;2024-02-15T03:18:15;9.00;98.80
19813;DHT22;10066;48.108;11.448;2024-02-15T03:20:43;8.90;98.70
19813;DHT22;10066;48.108;11.448;2024-02-15T03:23:10;8.90;98.80
19813;DHT22;10066;48.108;11.448;2024-02-15T03:25:37;8.80;98.70
19813;DHT22;10066;48.108;11.448;2024-02-15T03:28:05;8.80;98.80
19813;DHT22;10066;48.108;11.448;2024-02-15T03:30:32;8.80;98.80
19813;DHT22;10066;48.108;11.448;2024-02-15T03:33:00;8.70;98.80
19813;DHT22;10066;48.108;11.448;2024-02-15T03:35:30;8.70;98.90
19813;DHT22;10066;48.108;11.448;2024-02-15T03:37:57;8.70;98.90
19813;DHT22;10066;48.108;11.448;2024-02-15T03:40:24;8.60;98.90
19813;DHT22;10066;48.108;11.448;2024-02-15T03:42:53;8.60;98.90
19813;DHT22;10066;48.108;11.448;2024-02-15T03:45:20;8.60;99.00
19813;DHT22;10066;48.108;11.448;2024-02-15T03:47:50;8.60;99.00
19813;DHT22;10066;48.108;11.448;2024-02-15T03:50:18;8.50;99.00
19813;DHT22;10066;48.108;11.448;2024-02-15T03:52:49;8.50;99.10
19813;DHT22;10066;48.108;11.448;2024-02-15T03:55:17;8.60;99.20
19813;DHT22;10066;48.108;11.448;2024-02-15T03:57:44;8.60;99.20
19813;DHT22;10066;48.108;11.448;2024-02-15T04:00:12;8.50;99.10
19813;DHT22;10066;48.108;11.448;2024-02-15T04:02:46;8.50;99.20
19813;DHT22;10066;48.108;11.448;2024-02-15T04:05:15;8.50;99.50
19813;DHT22;10066;48.108;11.448;2024-02-15T04:07:44;8.50;99.10
19813;DHT22;10066;48.108;11.448;2024-02-15T04:10:12;8.40;99.10
19813;DHT22;10066;48.108;11.448;2024-02-15T04:12:39;8.40;99.10
19813;DHT22;10066;48.108;11.448;2024-02-15T04:15:08;8.30;99.10
19813;DHT22;10066;48.108;11.448;2024-02-15T04:17:39;8.30;99.10
19813;DHT22;10066;48.108;11.448;2024-02-15T04:20:08;8.30;99.20
19813;DHT22;10066;48.108;11.448;2024-02-15T04:22:35;8.20;99.10
19813;DHT22;10066;48.108;11.448;2024-02-15T04:25:04;8.20;99.20
19813;DHT22;10066;48.108;11.448;2024-02-15T04:27:33;8.10;99.20
19813;DHT22;10066;48.108;11.448;2024-02-15T04:30:00;8.10;99.20
19813;DHT22;10066;48.108;11.448;2024-02-15T04:32:27;8.00;99.50
19813;DHT22;10066;48.108;11.448;2024-02-15T04:34:59;8.00;99.30
19813;DHT22;10066;48.108;11.448;2024-02-15T04:37:26;7.90;99.30
19813;DHT22;10066;48.108;11.448;2024-02-15T04:39:57;7.90;99.30
19813;DHT22;10066;48.108;11.448;2024-02-15T04:42:33;7.80;99.40
19813;DHT22;10066;48.108;11.448;2024-02-15T04:45:00;7.80;99.50
19813;DHT22;10066;48.108;11.448;2024-02-15T04:47:27;7.80;99.60
19813;DHT22;10066;48.108;11.448;2024-02-15T04:49:55;7.70;99.60
19813;DHT22;10066;48.108;11.448;2024-02-15T04:52:22;7.70;99.50
19813;DHT22;10066;48.108;11.448;2024-02-15T04:54:50;7.70;99.50
19813;DHT22;10066;48.108;11.448;2024-02-15T04:57:17;7.60;99.40
19813;DHT22;10066;48.108;11.448;2024-02-15T04:59:45;7.50;99.40
19813;DHT22;10066;48.108;11.448;2024-02-15T05:02:14;7.40;99.40
19813;DHT22;10066;48.108;11.448;2024-02-15T05:04:41;7.30;99.30
19813;DHT22;10066;48.108;11.448;2024-02-15T05:07:09;7.20;99.80
19813;DHT22;10066;48.108;11.448;2024-02-15T05:09:36;7.20;99.70
19813;DHT22;10066;48.108;11.448;2024-02-15T05:12:03;7.10;99.70
19813;DHT22;10066;48.108;11.448;2024-02-15T05:14:31;7.00;99.70
19813;DHT22;10066;48.108;11.448;2024-02-15T05:16:59;7.00;99.90
19813;DHT22;10066;48.108;11.448;2024-02-15T05:19:27;6.90;99.90
19813;DHT22;10066;48.108;11.448;2024-02-15T05:21:56;6.80;99.90
19813;DHT22;10066;48.108;11.448;2024-02-15T05:24:22;6.70;99.90
19813;DHT22;10066;48.108;11.448;2024-02-15T05:26:49;6.80;99.90
19813;DHT22;10066;48.108;11.448;2024-02-15T05:29:16;6.80;99.90
19813;DHT22;10066;48.108;11.448;2024-02-15T05:31:46;6.80;99.90
19813;DHT22;10066;48.108;11.448;2024-02-15T05:34:17;6.90;99.90
19813;DHT22;10066;48.108;11.448;2024-02-15T05:36:44;6.90;99.90
19813;DHT22;10066;48.108;11.448;2024-02-15T05:39:13;6.90;99.90
19813;DHT22;10066;48.108;11.448;2024-02-15T05:41:41;6.80;99.90
19813;DHT22;10066;48.108;11.448;2024-02-15T05:44:07;6.80;99.90
19813;DHT22;10066;48.108;11.448;2024-02-15T05:46:35;6.80;99.90
19813;DHT22;10066;48.108;11.448;2024-02-15T05:49:05;6.70;99.90
19813;DHT22;10066;48.108;11.448;2024-02-15T05:51:35;6.60;99.90
19813;DHT22;10066;48.108;11.448;2024-02-15T05:54:02;6.60;99.90
19813;DHT22;10066;48.108;11.448;2024-02-15T05:56:29;6.60;99.90
19813;DHT22;10066;48.108;11.448;2024-02-15T05:58:56;6.50;99.90
19813;DHT22;10066;48.108;11.448;2024-02-15T06:01:23;6.50;99.90
19813;DHT22;10066;48.108;11.448;2024-02-15T06:03:51;6.40;99.90
19813;DHT22;10066;48.108;11.448;2024-02-15T06:06:21;6.40;99.90
19813;DHT22;10066;48.108;11.448;2024-02-15T06:08:50;6.40;99.90
19813;DHT22;10066;48.108;11.448;2024-02-15T06:11:19;6.30;99.90
19813;DHT22;10066;48.108;11.448;2024-02-15T06:13:46;6.30;99.90
19813;DHT22;10066;48.108;11.448;2024-02-15T06:16:13;6.30;99.90
19813;DHT22;10066;48.108;11.448;2024-02-15T06:18:40;6.20;99.90
19813;DHT22;10066;48.108;11.448;2024-02-15T06:21:07;6.30;99.90
19813;DHT22;10066;48.108;11.448;2024-02-15T06:23:34;6.30;99.90
19813;DHT22;10066;48.108;11.448;2024-02-15T06:26:04;6.30;99.90
19813;DHT22;10066;48.108;11.448;2024-02-15T06:28:32;6.30;99.90
19813;DHT22;10066;48.108;11.448;2024-02-15T06:31:16;6.30;99.90
19813;DHT22;10066;48.108;11.448;2024-02-15T06:34:06;6.30;99.90
19813;DHT22;10066;48.108;11.448;2024-02-15T06:36:55;6.40;99.90
19813;DHT22;10066;48.108;11.448;2024-02-15T06:39:40;6.40;99.90
19813;DHT22;10066;48.108;11.448;2024-02-15T06:42:13;6.50;99.90
19813;DHT22;10066;48.108;11.448;2024-02-15T06:44:42;6.60;99.90
19813;DHT22;10066;48.108;11.448;2024-02-15T06:47:09;6.70;99.90
19813;DHT22;10066;48.108;11.448;2024-02-15T06:49:37;6.80;99.90
19813;DHT22;10066;48.108;11.448;2024-02-15T06:52:05;6.90;99.90
19813;DHT22;10066;48.108;11.448;2024-02-15T06:54:33;7.10;99.90
19813;DHT22;10066;48.108;11.448;2024-02-15T06:57:01;7.20;99.90
19813;DHT22;10066;48.108;11.448;2024-02-15T06:59:29;7.20;99.90
19813;DHT22;10066;48.108;11.448;2024-02-15T07:01:57;7.30;99.90
19813;DHT22;10066;48.108;11.448;2024-02-15T07:04:24;7.30;99.90
19813;DHT22;10066;48.108;11.448;2024-02-15T07:06:52;7.30;99.90
19813;DHT22;10066;48.108;11.448;2024-02-15T07:09:20;7.40;99.90
19813;DHT22;10066;48.108;11.448;2024-02-15T07:11:48;7.40;99.90
19813;DHT22;10066;48.108;11.448;2024-02-15T07:14:15;7.40;99.90
19813;DHT22;10066;48.108;11.448;2024-02-15T07:16:46;7.50;99.90
19813;DHT22;10066;48.108;11.448;2024-02-15T07:19:13;7.60;99.90
19813;DHT22;10066;48.108;11.448;2024-02-15T07:21:41;7.60;99.90
19813;DHT22;10066;48.108;11.448;2024-02-15T07:24:08;7.60;99.90
19813;DHT22;10066;48.108;11.448;2024-02-15T07:26:36;7.70;99.90
19813;DHT22;10066;48.108;11.448;2024-02-15T07:29:03;7.60;99.90
19813;DHT22;10066;48.108;11.448;2024-02-15T07:31:31;7.60;99.90
19813;DHT22;10066;48.108;11.448;2024-02-15T07:34:00;7.60;99.90
19813;DHT22;10066;48.108;11.448;2024-02-15T07:36:27;7.60;99.90
19813;DHT22;10066;48.108;11.448;2024-02-15T07:38:54;7.60;99.90
19813;DHT22;10066;48.108;11.448;2024-02-15T07:41:26;7.60;99.90
19813;DHT22;10066;48.108;11.448;2024-02-15T07:43:54;7.60;99.90
19813;DHT22;10066;48.108;11.448;2024-02-15T07:46:23;7.60;99.90
19813;DHT22;10066;48.108;11.448;2024-02-15T07:48:50;7.60;99.90
19813;DHT22;10066;48.108;11.448;2024-02-15T07:51:20;7.50;99.90
19813;DHT22;10066;48.108;11.448;2024-02-15T07:53:47;7.50;99.90
19813;DHT22;10066;48.108;11.448;2024-02-15T07:56:16;7.60;99.90
19813;DHT22;10066;48.108;11.448;2024-02-15T07:58:45;7.60;99.90
19813;DHT22;10066;48.108;11.448;2024-02-15T08:01:13;7.60;99.90
19813;DHT22;10066;48.108;11.448;2024-02-15T08:03:42;7.70;99.90
19813;DHT22;10066;48.108;11.448;2024-02-15T08:06:11;7.70;99.90
19813;DHT22;10066;48.108;11.448;2024-02-15T08:08:40;7.70;99.90
19813;DHT22;10066;48.108;11.448;2024-02-15T08:11:08;7.80;99.90
19813;DHT22;10066;48.108;11.448;2024-02-15T08:13:41;7.80;99.90
19813;DHT22;10066;48.108;11.448;2024-02-15T08:16:08;7.90;99.90
19813;DHT22;10066;48.108;11.448;2024-02-15T08:18:35;8.00;99.90
19813;DHT22;10066;48.108;11.448;2024-02-15T08:21:03;8.00;99.90
19813;DHT22;10066;48.108;11.448;2024-02-15T08:23:30;8.10;99.90
19813;DHT22;10066;48.108;11.448;2024-02-15T08:28:27;8.30;99.90
19813;DHT22;10066;48.108;11.448;2024-02-15T08:30:55;8.40;99.90
19813;DHT22;10066;48.108;11.448;2024-02-15T08:33:23;8.50;99.90
19813;DHT22;10066;48.108;11.448;2024-02-15T08:35:50;8.60;99.90
19813;DHT22;10066;48.108;11.448;2024-02-15T08:38:20;8.70;99.90
19813;DHT22;10066;48.108;11.448;2024-02-15T08:40:47;8.80;99.90
19813;DHT22;10066;48.108;11.448;2024-02-15T08:43:16;8.90;99.90
19813;DHT22;10066;48.108;11.448;2024-02-15T08:45:43;8.90;99.90
19813;DHT22;10066;48.108;11.448;2024-02-15T08:48:11;9.00;99.90
19813;DHT22;10066;48.108;11.448;2024-02-15T08:50:38;9.10;99.90
19813;DHT22;10066;48.108;11.448;2024-02-15T08:53:07;9.30;99.90
19813;DHT22;10066;48.108;11.448;2024-02-15T08:55:34;9.40;99.90
19813;DHT22;10066;48.108;11.448;2024-02-15T08:58:02;9.50;99.90
19813;DHT22;10066;48.108;11.448;2024-02-15T09:00:31;9.60;99.90
19813;DHT22;10066;48.108;11.448;2024-02-15T09:02:58;9.70;99.90
19813;DHT22;10066;48.108;11.448;2024-02-15T09:05:25;9.80;99.90
19813;DHT22;10066;48.108;11.448;2024-02-15T09:07:53;10.00;99.90
19813;DHT22;10066;48.108;11.448;2024-02-15T09:10:21;10.10;99.80
19813;DHT22;10066;48.108;11.448;2024-02-15T09:12:49;10.20;99.70
19813;DHT22;10066;48.108;11.448;2024-02-15T09:15:16;10.30;99.50
19813;DHT22;10066;48.108;11.448;2024-02-15T09:17:45;10.40;99.60
19813;DHT22;10066;48.108;11.448;2024-02-15T09:20:13;10.60;99.50
19813;DHT22;10066;48.108;11.448;2024-02-15T09:22:41;10.70;99.40
19813;DHT22;10066;48.108;11.448;2024-02-15T09:25:09;10.80;99.30
19813;DHT22;10066;48.108;11.448;2024-02-15T09:27:38;10.90;99.30
19813;DHT22;10066;48.108;11.448;2024-02-15T09:30:06;11.00;99.20
19813;DHT22;10066;48.108;11.448;2024-02-15T09:32:35;11.20;99.00
19813;DHT22;10066;48.108;11.448;2024-02-15T09:35:04;11.30;99.00
19813;DHT22;10066;48.108;11.448;2024-02-15T09:37:33;11.40;98.80
19813;DHT22;10066;48.108;11.448;2024-02-15T09:40:01;11.50;98.70
19813;DHT22;10066;48.108;11.448;2024-02-15T09:42:32;11.60;98.40
19813;DHT22;10066;48.108;11.448;2024-02-15T09:45:00;11.70;98.20
19813;DHT22;10066;48.108;11.448;2024-02-15T09:47:34;11.80;98.10
19813;DHT22;10066;48.108;11.448;2024-02-15T09:50:06;11.90;98.00
19813;DHT22;10066;48.108;11.448;2024-02-15T09:52:34;12.00;97.90
19813;DHT22;10066;48.108;11.448;2024-02-15T09:55:03;12.10;97.70
19813;DHT22;10066;48.108;11.448;2024-02-15T09:57:30;12.20;98.10
19813;DHT22;10066;48.108;11.448;2024-02-15T09:59:59;12.30;98.50
19813;DHT22;10066;48.108;11.448;2024-02-15T10:02:26;12.40;98.60
19813;DHT22;10066;48.108;11.448;2024-02-15T10:04:54;12.40;98.50
19813;DHT22;10066;48.108;11.448;2024-02-15T10:07:24;12.50;98.50
19813;DHT22;10066;48.108;11.448;2024-02-15T10:09:52;12.60;98.50
19813;DHT22;10066;48.108;11.448;2024-02-15T10:12:19;12.60;98.50
19813;DHT22;10066;48.108;11.448;2024-02-15T10:14:51;12.70;98.60
19813;DHT22;10066;48.108;11.448;2024-02-15T10:17:19;12.80;98.50
19813;DHT22;10066;48.108;11.448;2024-02-15T10:20:03;12.80;98.50
19813;DHT22;10066;48.108;11.448;2024-02-15T10:22:31;12.90;98.00
19813;DHT22;10066;48.108;11.448;2024-02-15T10:25:11;13.00;98.50
19813;DHT22;10066;48.108;11.448;2024-02-15T10:27:39;13.10;98.50
19813;DHT22;10066;48.108;11.448;2024-02-15T10:30:17;13.20;98.50
19813;DHT22;10066;48.108;11.448;2024-02-15T10:32:44;13.20;98.30
19813;DHT22;10066;48.108;11.448;2024-02-15T10:35:19;13.30;98.30
19813;DHT22;10066;48.108;11.448;2024-02-15T10:37:49;13.30;97.90
19813;DHT22;10066;48.108;11.448;2024-02-15T10:40:20;13.30;98.00
19813;DHT22;10066;48.108;11.448;2024-02-15T10:42:51;13.40;97.90
19813;DHT22;10066;48.108;11.448;2024-02-15T10:45:18;13.40;97.70
19813;DHT22;10066;48.108;11.448;2024-02-15T10:47:46;13.40;97.80
19813;DHT22;10066;48.108;11.448;2024-02-15T10:50:15;13.50;97.90
19813;DHT22;10066;48.108;11.448;2024-02-15T10:52:51;13.50;97.70
19813;DHT22;10066;48.108;11.448;2024-02-15T10:55:26;13.50;97.40
19813;DHT22;10066;48.108;11.448;2024-02-15T10:58:01;13.60;97.30
19813;DHT22;10066;48.108;11.448;2024-02-15T11:00:32;13.60;97.00
19813;DHT22;10066;48.108;11.448;2024-02-15T11:03:03;13.60;97.20
19813;DHT22;10066;48.108;11.448;2024-02-15T11:05:33;13.70;97.10
19813;DHT22;10066;48.108;11.448;2024-02-15T11:08:06;13.70;97.00
19813;DHT22;10066;48.108;11.448;2024-02-15T11:10:34;13.70;96.70
19813;DHT22;10066;48.108;11.448;2024-02-15T11:13:02;13.70;96.80
19813;DHT22;10066;48.108;11.448;2024-02-15T11:15:44;13.80;96.70
19813;DHT22;10066;48.108;11.448;2024-02-15T11:18:44;13.90;96.30
19813;DHT22;10066;48.108;11.448;2024-02-15T11:21:15;13.90;95.80
19813;DHT22;10066;48.108;11.448;2024-02-15T11:23:44;14.00;95.70
19813;DHT22;10066;48.108;11.448;2024-02-15T11:26:44;14.00;95.80
19813;DHT22;10066;48.108;11.448;2024-02-15T11:29:48;14.10;95.70
19813;DHT22;10066;48.108;11.448;2024-02-15T11:32:42;14.20;95.40
19813;DHT22;10066;48.108;11.448;2024-02-15T11:35:13;14.30;94.90
19813;DHT22;10066;48.108;11.448;2024-02-15T11:37:55;14.40;98.00
19813;DHT22;10066;48.108;11.448;2024-02-15T11:42:55;14.50;94.90
19813;DHT22;10066;48.108;11.448;2024-02-15T11:45:23;14.60;95.20
19813;DHT22;10066;48.108;11.448;2024-02-15T11:47:53;14.60;95.00
19813;DHT22;10066;48.108;11.448;2024-02-15T11:50:22;14.70;94.70
19813;DHT22;10066;48.108;11.448;2024-02-15T11:52:50;14.70;94.30
19813;DHT22;10066;48.108;11.448;2024-02-15T11:55:21;14.80;94.10
19813;DHT22;10066;48.108;11.448;2024-02-15T11:57:57;14.80;94.10
19813;DHT22;10066;48.108;11.448;2024-02-15T12:00:43;14.80;93.80
19813;DHT22;10066;48.108;11.448;2024-02-15T12:03:28;14.90;93.80
19813;DHT22;10066;48.108;11.448;2024-02-15T12:06:17;15.00;93.80
19813;DHT22;10066;48.108;11.448;2024-02-15T12:09:02;15.00;93.40
19813;DHT22;10066;48.108;11.448;2024-02-15T12:11:47;15.10;93.80
19813;DHT22;10066;48.108;11.448;2024-02-15T12:14:35;15.10;93.80
19813;DHT22;10066;48.108;11.448;2024-02-15T12:17:19;15.10;93.70
19813;DHT22;10066;48.108;11.448;2024-02-15T12:20:04;15.20;93.60
19813;DHT22;10066;48.108;11.448;2024-02-15T12:22:40;15.20;93.70
19813;DHT22;10066;48.108;11.448;2024-02-15T12:25:08;15.10;93.30
19813;DHT22;10066;48.108;11.448;2024-02-15T12:27:38;15.20;93.60
19813;DHT22;10066;48.108;11.448;2024-02-15T12:30:08;15.10;93.30
19813;DHT22;10066;48.108;11.448;2024-02-15T12:32:40;15.10;93.50
19813;DHT22;10066;48.108;11.448;2024-02-15T12:35:10;15.10;93.40
19813;DHT22;10066;48.108;11.448;2024-02-15T12:37:42;15.10;93.50
19813;DHT22;10066;48.108;11.448;2024-02-15T12:40:12;15.10;93.50
19813;DHT22;10066;48.108;11.448;2024-02-15T12:42:42;15.10;93.50
19813;DHT22;10066;48.108;11.448;2024-02-15T12:45:16;15.10;93.60
19813;DHT22;10066;48.108;11.448;2024-02-15T12:47:47;15.10;93.70
19813;DHT22;10066;48.108;11.448;2024-02-15T12:50:15;15.10;93.70
19813;DHT22;10066;48.108;11.448;2024-02-15T12:52:45;15.10;93.70
19813;DHT22;10066;48.108;11.448;2024-02-15T12:55:14;15.10;93.70
19813;DHT22;10066;48.108;11.448;2024-02-15T12:57:44;15.20;93.60
19813;DHT22;10066;48.108;11.448;2024-02-15T13:00:14;15.20;93.50
19813;DHT22;10066;48.108;11.448;2024-02-15T13:02:46;15.20;93.50
19813;DHT22;10066;48.108;11.448;2024-02-15T13:05:14;15.30;93.50
19813;DHT22;10066;48.108;11.448;2024-02-15T13:07:45;15.30;93.40
19813;DHT22;10066;48.108;11.448;2024-02-15T13:10:13;15.40;93.70
19813;DHT22;10066;48.108;11.448;2024-02-15T13:12:41;15.50;93.30
19813;DHT22;10066;48.108;11.448;2024-02-15T13:15:10;15.50;93.00
19813;DHT22;10066;48.108;11.448;2024-02-15T13:17:40;15.50;93.00
19813;DHT22;10066;48.108;11.448;2024-02-15T13:20:11;15.50;92.90
19813;DHT22;10066;48.108;11.448;2024-02-15T13:22:42;15.50;92.70
19813;DHT22;10066;48.108;11.448;2024-02-15T13:25:10;15.40;92.50
19813;DHT22;10066;48.108;11.448;2024-02-15T13:27:37;15.40;92.40
19813;DHT22;10066;48.108;11.448;2024-02-15T13:30:05;15.40;92.40
19813;DHT22;10066;48.108;11.448;2024-02-15T13:32:35;15.40;92.30
19813;DHT22;10066;48.108;11.448;2024-02-15T13:35:03;15.40;92.40
19813;DHT22;10066;48.108;11.448;2024-02-15T13:37:40;15.30;92.40
19813;DHT22;10066;48.108;11.448;2024-02-15T13:40:10;15.40;92.50
19813;DHT22;10066;48.108;11.448;2024-02-15T13:42:41;15.40;92.60
19813;DHT22;10066;48.108;11.448;2024-02-15T13:45:12;15.40;92.50
19813;DHT22;10066;48.108;11.448;2024-02-15T13:47:40;15.50;92.40
19813;DHT22;10066;48.108;11.448;2024-02-15T13:50:08;15.50;92.30
19813;DHT22;10066;48.108;11.448;2024-02-15T13:52:35;15.50;92.10
19813;DHT22;10066;48.108;11.448;2024-02-15T13:55:04;15.50;92.20
19813;DHT22;10066;48.108;11.448;2024-02-15T13:57:31;15.50;92.00
19813;DHT22;10066;48.108;11.448;2024-02-15T13:59:58;15.50;91.90
19813;DHT22;10066;48.108;11.448;2024-02-15T14:02:25;15.50;91.80
19813;DHT22;10066;48.108;11.448;2024-02-15T14:04:53;15.50;91.60
19813;DHT22;10066;48.108;11.448;2024-02-15T14:07:22;15.50;91.50
19813;DHT22;10066;48.108;11.448;2024-02-15T14:09:49;15.40;91.30
19813;DHT22;10066;48.108;11.448;2024-02-15T14:12:17;15.40;91.20
19813;DHT22;10066;48.108;11.448;2024-02-15T14:14:45;15.40;91.10
19813;DHT22;10066;48.108;11.448;2024-02-15T14:17:12;15.40;91.20
19813;DHT22;10066;48.108;11.448;2024-02-15T14:19:40;15.30;91.00
19813;DHT22;10066;48.108;11.448;2024-02-15T14:22:09;15.30;91.00
19813;DHT22;10066;48.108;11.448;2024-02-15T14:24:41;15.30;91.00
19813;DHT22;10066;48.108;11.448;2024-02-15T14:27:09;15.30;91.00
19813;DHT22;10066;48.108;11.448;2024-02-15T14:29:38;15.20;91.10
19813;DHT22;10066;48.108;11.448;2024-02-15T14:32:25;15.30;91.20
19813;DHT22;10066;48.108;11.448;2024-02-15T14:35:10;15.20;91.10
19813;DHT22;10066;48.108;11.448;2024-02-15T14:37:39;15.30;91.10
19813;DHT22;10066;48.108;11.448;2024-02-15T14:40:07;15.20;90.70
19813;DHT22;10066;48.108;11.448;2024-02-15T14:42:35;15.20;90.80
19813;DHT22;10066;48.108;11.448;2024-02-15T14:45:05;15.20;90.70
19813;DHT22;10066;48.108;11.448;2024-02-15T14:47:32;15.20;90.90
19813;DHT22;10066;48.108;11.448;2024-02-15T14:49:59;15.30;91.00
19813;DHT22;10066;48.108;11.448;2024-02-15T14:52:27;15.20;90.80
19813;DHT22;10066;48.108;11.448;2024-02-15T14:54:54;15.20;90.90
19813;DHT22;10066;48.108;11.448;2024-02-15T14:57:21;15.20;91.00
19813;DHT22;10066;48.108;11.448;2024-02-15T14:59:49;15.10;91.20
19813;DHT22;10066;48.108;11.448;2024-02-15T15:02:18;15.10;91.40
19813;DHT22;10066;48.108;11.448;2024-02-15T15:04:45;15.10;91.70
19813;DHT22;10066;48.108;11.448;2024-02-15T15:07:34;15.00;91.90
19813;DHT22;10066;48.108;11.448;2024-02-15T15:10:18;14.90;92.00
19813;DHT22;10066;48.108;11.448;2024-02-15T15:13:03;14.90;92.20
19813;DHT22;10066;48.108;11.448;2024-02-15T15:15:30;14.80;92.30
19813;DHT22;10066;48.108;11.448;2024-02-15T15:17:58;14.70;92.40
19813;DHT22;10066;48.108;11.448;2024-02-15T15:20:25;14.60;92.40
19813;DHT22;10066;48.108;11.448;2024-02-15T15:22:52;14.50;92.50
19813;DHT22;10066;48.108;11.448;2024-02-15T15:25:21;14.40;92.70
19813;DHT22;10066;48.108;11.448;2024-02-15T15:27:49;14.40;92.90
19813;DHT22;10066;48.108;11.448;2024-02-15T15:30:17;14.30;93.00
19813;DHT22;10066;48.108;11.448;2024-02-15T15:32:46;14.20;93.10
19813;DHT22;10066;48.108;11.448;2024-02-15T15:35:16;14.10;93.20
19813;DHT22;10066;48.108;11.448;2024-02-15T15:37:44;14.10;93.40
19813;DHT22;10066;48.108;11.448;2024-02-15T15:40:12;14.00;93.50
19813;DHT22;10066;48.108;11.448;2024-02-15T15:42:39;14.00;94.00
19813;DHT22;10066;48.108;11.448;2024-02-15T15:45:07;13.90;93.70